sensor_id;sensor_type;location;lat;lon;timestamp;pressure;altitude;pressure_sealevel;temperature;humidity
79538;BME280;68989;52.032;5.152;2024-01-15T00:01:20;100487.29;;;8.07;60.98
79538;BME280;68989;52.032;5.152;2024-01-15T00:03:47;100484.18;;;8.04;60.98
79538;BME280;68989;52.032;5.152;2024-01-15T00:06:14;100480.69;;;8.01;61.00
79538;BME280;68989;52.032;5.152;2024-01-15T00:08:41;100476.14;;;7.99;61.02
79538;BME280;68989;52.032;5.152;2024-01-15T00:11:08;100475.91;;;7.97;60.80
79538;BME280;68989;52.032;5.152;2024-01-15T00:13:35;100472.43;;;7.93;61.13
79538;BME280;68989;52.032;5.152;2024-01-15T00:16:02;100472.31;;;7.92;60.96
79538;BME280;68989;52.032;5.152;2024-01-15T00:18:29;100470.87;;;7.91;60.93
79538;BME280;68989;52.032;5.152;2024-01-15T00:20:56;100466.16;;;7.91;60.89
79538;BME280;68989;52.032;5.152;2024-01-15T00:23:23;100465.84;;;7.90;61.07
79538;BME280;68989;52.032;5.152;2024-01-15T00:25:51;100464.39;;;7.89;61.19
79538;BME280;68989;52.032;5.152;2024-01-15T00:28:18;100461.97;;;7.89;61.14
79538;BME280;68989;52.032;5.152;2024-01-15T00:30:45;100457.49;;;7.89;61.15
79538;BME280;68989;52.032;5.152;2024-01-15T00:33:12;100452.08;;;7.88;61.14
79538;BME280;68989;52.032;5.152;2024-01-15T00:35:39;100449.36;;;7.87;61.22
79538;BME280;68989;52.032;5.152;2024-01-15T00:38:06;100446.26;;;7.86;61.13
79538;BME280;68989;52.032;5.152;2024-01-15T00:40:33;100447.67;;;7.85;61.16
79538;BME280;68989;52.032;5.152;2024-01-15T00:43:00;100441.74;;;7.85;61.01
79538;BME280;68989;52.032;5.152;2024-01-15T00:45:27;100436.43;;;7.84;60.95
79538;BME280;68989;52.032;5.152;2024-01-15T00:47:54;100430.92;;;7.82;61.05
79538;BME280;68989;52.032;5.152;2024-01-15T00:50:21;100428.60;;;7.82;61.01
79538;BME280;68989;52.032;5.152;2024-01-15T00:52:48;100428.84;;;7.80;61.02
79538;BME280;68989;52.032;5.152;2024-01-15T00:55:15;100426.65;;;7.79;61.01
79538;BME280;68989;52.032;5.152;2024-01-15T00:57:42;100424.42;;;7.77;60.94
79538;BME280;68989;52.032;5.152;2024-01-15T01:00:09;100423.48;;;7.77;60.80
79538;BME280;68989;52.032;5.152;2024-01-15T01:02:36;100419.25;;;7.75;60.81
79538;BME280;68989;52.032;5.152;2024-01-15T01:05:04;100426.13;;;7.74;60.77
79538;BME280;68989;52.032;5.152;2024-01-15T01:07:31;100425.41;;;7.73;60.73
79538;BME280;68989;52.032;5.152;2024-01-15T01:09:58;100420.31;;;7.72;60.89
79538;BME280;68989;52.032;5.152;2024-01-15T01:12:25;100420.55;;;7.71;60.74
79538;BME280;68989;52.032;5.152;2024-01-15T01:14:52;100419.53;;;7.71;60.79
79538;BME280;68989;52.032;5.152;2024-01-15T01:17:19;100419.95;;;7.69;60.68
79538;BME280;68989;52.032;5.152;2024-01-15T01:19:46;100417.34;;;7.68;60.71
79538;BME280;68989;52.032;5.152;2024-01-15T01:22:13;100416.30;;;7.67;60.66
79538;BME280;68989;52.032;5.152;2024-01-15T01:24:40;100415.27;;;7.65;60.77
79538;BME280;68989;52.032;5.152;2024-01-15T01:27:07;100413.08;;;7.65;60.71
79538;BME280;68989;52.032;5.152;2024-01-15T01:29:35;100409.14;;;7.63;60.71
79538;BME280;68989;52.032;5.152;2024-01-15T01:32:02;100404.84;;;7.62;60.52
79538;BME280;68989;52.032;5.152;2024-01-15T01:34:29;100406.25;;;7.61;60.70
79538;BME280;68989;52.032;5.152;2024-01-15T01:36:56;100404.39;;;7.60;60.73
79538;BME280;68989;52.032;5.152;2024-01-15T01:39:23;100406.85;;;7.59;60.57
79538;BME280;68989;52.032;5.152;2024-01-15T01:41:50;100409.43;;;7.58;60.67
79538;BME280;68989;52.032;5.152;2024-01-15T01:44:17;100414.16;;;7.58;60.65
79538;BME280;68989;52.032;5.152;2024-01-15T01:46:44;100417.47;;;7.56;60.73
79538;BME280;68989;52.032;5.152;2024-01-15T01:49:11;100414.29;;;7.55;60.68
79538;BME280;68989;52.032;5.152;2024-01-15T01:51:38;100413.98;;;7.54;60.50
79538;BME280;68989;52.032;5.152;2024-01-15T01:54:06;100421.69;;;7.52;60.61
79538;BME280;68989;52.032;5.152;2024-01-15T01:56:35;100415.45;;;7.52;60.80
79538;BME280;68989;52.032;5.152;2024-01-15T01:59:02;100407.84;;;7.52;60.66
79538;BME280;68989;52.032;5.152;2024-01-15T02:01:49;100413.05;;;7.51;60.67
79538;BME280;68989;52.032;5.152;2024-01-15T02:04:16;100407.85;;;7.49;60.82
79538;BME280;68989;52.032;5.152;2024-01-15T02:06:44;100411.16;;;7.49;60.84
79538;BME280;68989;52.032;5.152;2024-01-15T02:09:11;100409.55;;;7.49;60.83
79538;BME280;68989;52.032;5.152;2024-01-15T02:11:38;100406.66;;;7.48;60.63
79538;BME280;68989;52.032;5.152;2024-01-15T02:14:05;100401.90;;;7.47;60.84
79538;BME280;68989;52.032;5.152;2024-01-15T02:16:32;100398.12;;;7.47;60.83
79538;BME280;68989;52.032;5.152;2024-01-15T02:18:59;100397.56;;;7.47;60.75
79538;BME280;68989;52.032;5.152;2024-01-15T02:21:26;100396.87;;;7.47;60.72
79538;BME280;68989;52.032;5.152;2024-01-15T02:23:53;100400.65;;;7.46;60.68
79538;BME280;68989;52.032;5.152;2024-01-15T02:26:20;100401.42;;;7.45;60.66
79538;BME280;68989;52.032;5.152;2024-01-15T02:28:47;100402.48;;;7.44;60.80
79538;BME280;68989;52.032;5.152;2024-01-15T02:31:14;100406.37;;;7.43;60.66
79538;BME280;68989;52.032;5.152;2024-01-15T02:33:42;100406.58;;;7.43;60.60
79538;BME280;68989;52.032;5.152;2024-01-15T02:36:10;100409.78;;;7.41;60.63
79538;BME280;68989;52.032;5.152;2024-01-15T02:38:37;100418.99;;;7.40;60.55
79538;BME280;68989;52.032;5.152;2024-01-15T02:41:04;100414.90;;;7.39;60.61
79538;BME280;68989;52.032;5.152;2024-01-15T02:43:31;100419.60;;;7.39;60.61
79538;BME280;68989;52.032;5.152;2024-01-15T02:45:58;100422.84;;;7.39;60.58
79538;BME280;68989;52.032;5.152;2024-01-15T02:48:25;100424.59;;;7.38;60.53
79538;BME280;68989;52.032;5.152;2024-01-15T02:50:52;100425.57;;;7.38;60.57
79538;BME280;68989;52.032;5.152;2024-01-15T02:53:19;100426.16;;;7.36;60.67
79538;BME280;68989;52.032;5.152;2024-01-15T02:55:46;100425.81;;;7.36;60.94
79538;BME280;68989;52.032;5.152;2024-01-15T02:58:14;100423.84;;;7.37;60.95
79538;BME280;68989;52.032;5.152;2024-01-15T03:00:41;100413.73;;;7.39;60.87
79538;BME280;68989;52.032;5.152;2024-01-15T03:03:08;100406.25;;;7.39;61.06
79538;BME280;68989;52.032;5.152;2024-01-15T03:05:35;100396.61;;;7.40;61.17
79538;BME280;68989;52.032;5.152;2024-01-15T03:08:02;100397.12;;;7.42;61.10
79538;BME280;68989;52.032;5.152;2024-01-15T03:10:29;100398.35;;;7.43;60.99
79538;BME280;68989;52.032;5.152;2024-01-15T03:12:57;100394.99;;;7.44;60.86
79538;BME280;68989;52.032;5.152;2024-01-15T03:15:24;100393.44;;;7.44;60.98
79538;BME280;68989;52.032;5.152;2024-01-15T03:17:51;100393.89;;;7.44;60.94
79538;BME280;68989;52.032;5.152;2024-01-15T03:20:18;100396.22;;;7.43;60.92
79538;BME280;68989;52.032;5.152;2024-01-15T03:22:45;100390.52;;;7.43;60.88
79538;BME280;68989;52.032;5.152;2024-01-15T03:25:12;100391.06;;;7.43;60.82
79538;BME280;68989;52.032;5.152;2024-01-15T03:27:38;100390.28;;;7.42;60.86
79538;BME280;68989;52.032;5.152;2024-01-15T03:30:07;100393.83;;;7.41;60.91
79538;BME280;68989;52.032;5.152;2024-01-15T03:32:34;100390.91;;;7.42;60.52
79538;BME280;68989;52.032;5.152;2024-01-15T03:35:01;100384.07;;;7.41;60.87
79538;BME280;68989;52.032;5.152;2024-01-15T03:37:28;100381.35;;;7.40;61.12
79538;BME280;68989;52.032;5.152;2024-01-15T03:39:55;100378.81;;;7.41;60.94
79538;BME280;68989;52.032;5.152;2024-01-15T03:42:22;100376.86;;;7.41;60.91
79538;BME280;68989;52.032;5.152;2024-01-15T03:44:49;100376.95;;;7.41;60.86
79538;BME280;68989;52.032;5.152;2024-01-15T03:47:16;100372.42;;;7.40;60.88
79538;BME280;68989;52.032;5.152;2024-01-15T03:49:43;100365.05;;;7.39;61.00
79538;BME280;68989;52.032;5.152;2024-01-15T03:52:10;100365.25;;;7.39;60.85
79538;BME280;68989;52.032;5.152;2024-01-15T03:54:37;100359.66;;;7.38;60.90
79538;BME280;68989;52.032;5.152;2024-01-15T03:57:04;100370.97;;;7.39;60.89
79538;BME280;68989;52.032;5.152;2024-01-15T03:59:31;100377.03;;;7.38;60.94
79538;BME280;68989;52.032;5.152;2024-01-15T04:01:58;100386.01;;;7.39;60.93
79538;BME280;68989;52.032;5.152;2024-01-15T04:04:25;100385.11;;;7.40;61.02
79538;BME280;68989;52.032;5.152;2024-01-15T04:06:52;100381.02;;;7.40;60.98
79538;BME280;68989;52.032;5.152;2024-01-15T04:09:19;100380.99;;;7.40;60.97
79538;BME280;68989;52.032;5.152;2024-01-15T04:11:46;100364.75;;;7.40;61.05
79538;BME280;68989;52.032;5.152;2024-01-15T04:14:13;100354.69;;;7.40;61.03
79538;BME280;68989;52.032;5.152;2024-01-15T04:16:40;100351.58;;;7.40;61.25
79538;BME280;68989;52.032;5.152;2024-01-15T04:19:07;100349.99;;;7.40;61.30
79538;BME280;68989;52.032;5.152;2024-01-15T04:21:34;100349.01;;;7.40;61.35
79538;BME280;68989;52.032;5.152;2024-01-15T04:24:01;100343.30;;;7.41;61.24
79538;BME280;68989;52.032;5.152;2024-01-15T04:26:28;100346.54;;;7.41;61.23
79538;BME280;68989;52.032;5.152;2024-01-15T04:28:55;100348.65;;;7.42;61.23
79538;BME280;68989;52.032;5.152;2024-01-15T04:31:23;100349.09;;;7.41;61.34
79538;BME280;68989;52.032;5.152;2024-01-15T04:33:51;100342.68;;;7.41;61.37
79538;BME280;68989;52.032;5.152;2024-01-15T04:36:18;100335.79;;;7.41;61.39
79538;BME280;68989;52.032;5.152;2024-01-15T04:38:45;100331.18;;;7.42;61.28
79538;BME280;68989;52.032;5.152;2024-01-15T04:41:13;100331.64;;;7.43;61.26
79538;BME280;68989;52.032;5.152;2024-01-15T04:43:40;100325.77;;;7.43;61.38
79538;BME280;68989;52.032;5.152;2024-01-15T04:46:06;100322.22;;;7.43;61.40
79538;BME280;68989;52.032;5.152;2024-01-15T04:48:34;100318.04;;;7.43;61.33
79538;BME280;68989;52.032;5.152;2024-01-15T04:51:04;100318.20;;;7.43;61.34
79538;BME280;68989;52.032;5.152;2024-01-15T04:53:32;100318.29;;;7.43;61.36
79538;BME280;68989;52.032;5.152;2024-01-15T04:56:00;100322.80;;;7.43;61.25
79538;BME280;68989;52.032;5.152;2024-01-15T04:58:27;100332.34;;;7.43;61.37
79538;BME280;68989;52.032;5.152;2024-01-15T05:00:54;100329.47;;;7.43;61.31
79538;BME280;68989;52.032;5.152;2024-01-15T05:03:21;100332.32;;;7.43;61.31
79538;BME280;68989;52.032;5.152;2024-01-15T05:05:48;100330.51;;;7.43;61.42
79538;BME280;68989;52.032;5.152;2024-01-15T05:08:15;100331.23;;;7.43;61.38
79538;BME280;68989;52.032;5.152;2024-01-15T05:10:41;100329.32;;;7.42;61.47
79538;BME280;68989;52.032;5.152;2024-01-15T05:13:08;100320.81;;;7.42;61.44
79538;BME280;68989;52.032;5.152;2024-01-15T05:15:35;100318.02;;;7.43;61.55
79538;BME280;68989;52.032;5.152;2024-01-15T05:18:03;100317.37;;;7.43;61.58
79538;BME280;68989;52.032;5.152;2024-01-15T05:20:29;100312.89;;;7.44;61.44
79538;BME280;68989;52.032;5.152;2024-01-15T05:22:56;100311.80;;;7.45;61.35
79538;BME280;68989;52.032;5.152;2024-01-15T05:25:23;100308.86;;;7.44;61.52
79538;BME280;68989;52.032;5.152;2024-01-15T05:27:50;100306.85;;;7.45;61.59
79538;BME280;68989;52.032;5.152;2024-01-15T05:30:18;100309.24;;;7.45;61.46
79538;BME280;68989;52.032;5.152;2024-01-15T05:32:44;100308.44;;;7.46;61.42
79538;BME280;68989;52.032;5.152;2024-01-15T05:35:11;100300.03;;;7.46;61.32
79538;BME280;68989;52.032;5.152;2024-01-15T05:37:42;100298.02;;;7.45;61.35
79538;BME280;68989;52.032;5.152;2024-01-15T05:40:11;100297.54;;;7.45;61.37
79538;BME280;68989;52.032;5.152;2024-01-15T05:42:38;100299.52;;;7.45;61.34
79538;BME280;68989;52.032;5.152;2024-01-15T05:45:06;100295.91;;;7.44;61.30
79538;BME280;68989;52.032;5.152;2024-01-15T05:47:34;100296.17;;;7.44;61.36
79538;BME280;68989;52.032;5.152;2024-01-15T05:50:02;100294.77;;;7.43;61.27
79538;BME280;68989;52.032;5.152;2024-01-15T05:52:29;100294.32;;;7.42;61.36
79538;BME280;68989;52.032;5.152;2024-01-15T05:54:56;100292.42;;;7.42;61.34
79538;BME280;68989;52.032;5.152;2024-01-15T05:57:23;100292.59;;;7.42;61.32
79538;BME280;68989;52.032;5.152;2024-01-15T05:59:50;100292.06;;;7.42;61.45
79538;BME280;68989;52.032;5.152;2024-01-15T06:02:17;100304.08;;;7.42;61.54
79538;BME280;68989;52.032;5.152;2024-01-15T06:04:44;100298.69;;;7.42;61.57
79538;BME280;68989;52.032;5.152;2024-01-15T06:07:11;100295.70;;;7.43;61.47
79538;BME280;68989;52.032;5.152;2024-01-15T06:09:38;100296.49;;;7.43;61.45
79538;BME280;68989;52.032;5.152;2024-01-15T06:12:08;100289.10;;;7.43;61.37
79538;BME280;68989;52.032;5.152;2024-01-15T06:14:34;100282.64;;;7.43;61.43
79538;BME280;68989;52.032;5.152;2024-01-15T06:17:01;100279.85;;;7.42;61.55
79538;BME280;68989;52.032;5.152;2024-01-15T06:19:28;100280.14;;;7.42;61.47
79538;BME280;68989;52.032;5.152;2024-01-15T06:21:55;100269.65;;;7.43;61.42
79538;BME280;68989;52.032;5.152;2024-01-15T06:24:22;100264.00;;;7.42;61.34
79538;BME280;68989;52.032;5.152;2024-01-15T06:26:49;100265.92;;;7.42;61.45
79538;BME280;68989;52.032;5.152;2024-01-15T06:29:16;100263.31;;;7.41;61.42
79538;BME280;68989;52.032;5.152;2024-01-15T06:31:43;100265.53;;;7.42;61.43
79538;BME280;68989;52.032;5.152;2024-01-15T06:34:10;100269.48;;;7.41;61.45
79538;BME280;68989;52.032;5.152;2024-01-15T06:36:37;100273.39;;;7.42;61.52
79538;BME280;68989;52.032;5.152;2024-01-15T06:39:04;100288.23;;;7.43;61.51
79538;BME280;68989;52.032;5.152;2024-01-15T06:41:31;100299.19;;;7.43;61.49
79538;BME280;68989;52.032;5.152;2024-01-15T06:43:58;100299.38;;;7.43;61.27
79538;BME280;68989;52.032;5.152;2024-01-15T06:46:25;100291.67;;;7.41;61.39
79538;BME280;68989;52.032;5.152;2024-01-15T06:48:52;100282.66;;;7.38;61.63
79538;BME280;68989;52.032;5.152;2024-01-15T06:51:19;100277.77;;;7.38;61.63
79538;BME280;68989;52.032;5.152;2024-01-15T06:53:46;100280.53;;;7.38;61.86
79538;BME280;68989;52.032;5.152;2024-01-15T06:56:13;100284.10;;;7.39;61.90
79538;BME280;68989;52.032;5.152;2024-01-15T06:58:40;100280.52;;;7.39;61.95
79538;BME280;68989;52.032;5.152;2024-01-15T07:01:07;100279.16;;;7.40;61.81
79538;BME280;68989;52.032;5.152;2024-01-15T07:03:34;100275.41;;;7.41;61.81
79538;BME280;68989;52.032;5.152;2024-01-15T07:06:01;100275.89;;;7.41;61.72
79538;BME280;68989;52.032;5.152;2024-01-15T07:08:28;100288.70;;;7.41;61.60
79538;BME280;68989;52.032;5.152;2024-01-15T07:10:55;100308.09;;;7.42;61.55
79538;BME280;68989;52.032;5.152;2024-01-15T07:13:22;100321.45;;;7.43;61.54
79538;BME280;68989;52.032;5.152;2024-01-15T07:15:49;100320.34;;;7.42;61.58
79538;BME280;68989;52.032;5.152;2024-01-15T07:18:16;100322.46;;;7.42;61.46
79538;BME280;68989;52.032;5.152;2024-01-15T07:20:43;100320.61;;;7.42;61.48
79538;BME280;68989;52.032;5.152;2024-01-15T07:23:10;100324.20;;;7.42;61.33
79538;BME280;68989;52.032;5.152;2024-01-15T07:25:37;100318.46;;;7.41;61.40
79538;BME280;68989;52.032;5.152;2024-01-15T07:28:05;100315.39;;;7.41;61.55
79538;BME280;68989;52.032;5.152;2024-01-15T07:30:32;100321.66;;;7.42;61.50
79538;BME280;68989;52.032;5.152;2024-01-15T07:32:59;100333.03;;;7.42;61.42
79538;BME280;68989;52.032;5.152;2024-01-15T07:35:26;100327.97;;;7.42;61.48
79538;BME280;68989;52.032;5.152;2024-01-15T07:37:53;100320.63;;;7.43;61.14
79538;BME280;68989;52.032;5.152;2024-01-15T07:40:20;100313.85;;;7.41;61.53
79538;BME280;68989;52.032;5.152;2024-01-15T07:42:47;100311.98;;;7.41;61.43
79538;BME280;68989;52.032;5.152;2024-01-15T07:45:14;100304.33;;;7.41;61.42
79538;BME280;68989;52.032;5.152;2024-01-15T07:47:41;100301.56;;;7.41;61.35
79538;BME280;68989;52.032;5.152;2024-01-15T07:50:08;100299.92;;;7.41;61.34
79538;BME280;68989;52.032;5.152;2024-01-15T07:52:35;100301.77;;;7.41;61.37
79538;BME280;68989;52.032;5.152;2024-01-15T07:55:02;100321.48;;;7.42;61.42
79538;BME280;68989;52.032;5.152;2024-01-15T07:57:29;100333.22;;;7.42;61.25
79538;BME280;68989;52.032;5.152;2024-01-15T07:59:56;100327.64;;;7.41;61.36
79538;BME280;68989;52.032;5.152;2024-01-15T08:02:23;100313.20;;;7.41;61.39
79538;BME280;68989;52.032;5.152;2024-01-15T08:04:51;100302.66;;;7.42;61.26
79538;BME280;68989;52.032;5.152;2024-01-15T08:07:18;100301.40;;;7.42;61.32
79538;BME280;68989;52.032;5.152;2024-01-15T08:09:45;100308.90;;;7.41;61.37
79538;BME280;68989;52.032;5.152;2024-01-15T08:12:12;100307.82;;;7.41;61.36
79538;BME280;68989;52.032;5.152;2024-01-15T08:14:39;100307.05;;;7.41;61.28
79538;BME280;68989;52.032;5.152;2024-01-15T08:17:06;100305.38;;;7.41;61.37
79538;BME280;68989;52.032;5.152;2024-01-15T08:19:33;100316.19;;;7.42;61.32
79538;BME280;68989;52.032;5.152;2024-01-15T08:22:00;100318.35;;;7.42;61.34
79538;BME280;68989;52.032;5.152;2024-01-15T08:24:27;100309.44;;;7.41;61.20
79538;BME280;68989;52.032;5.152;2024-01-15T08:26:54;100307.39;;;7.41;61.39
79538;BME280;68989;52.032;5.152;2024-01-15T08:29:21;100302.14;;;7.42;61.34
79538;BME280;68989;52.032;5.152;2024-01-15T08:31:48;100302.54;;;7.42;61.30
79538;BME280;68989;52.032;5.152;2024-01-15T08:34:15;100318.75;;;7.42;61.27
79538;BME280;68989;52.032;5.152;2024-01-15T08:36:42;100328.61;;;7.42;61.28
79538;BME280;68989;52.032;5.152;2024-01-15T08:39:09;100342.05;;;7.42;61.25
79538;BME280;68989;52.032;5.152;2024-01-15T08:41:36;100333.25;;;7.41;61.16
79538;BME280;68989;52.032;5.152;2024-01-15T08:44:03;100324.96;;;7.40;61.26
79538;BME280;68989;52.032;5.152;2024-01-15T08:46:30;100324.07;;;7.40;61.34
79538;BME280;68989;52.032;5.152;2024-01-15T08:48:57;100320.09;;;7.40;61.31
79538;BME280;68989;52.032;5.152;2024-01-15T08:51:23;100316.41;;;7.40;61.25
79538;BME280;68989;52.032;5.152;2024-01-15T08:53:50;100312.97;;;7.41;61.26
79538;BME280;68989;52.032;5.152;2024-01-15T08:56:17;100315.40;;;7.41;61.28
79538;BME280;68989;52.032;5.152;2024-01-15T08:58:44;100323.93;;;7.41;61.21
79538;BME280;68989;52.032;5.152;2024-01-15T09:01:11;100321.44;;;7.41;61.20
79538;BME280;68989;52.032;5.152;2024-01-15T09:03:39;100320.58;;;7.41;61.28
79538;BME280;68989;52.032;5.152;2024-01-15T09:06:07;100319.84;;;7.41;61.38
79538;BME280;68989;52.032;5.152;2024-01-15T09:08:35;100333.38;;;7.42;61.27
79538;BME280;68989;52.032;5.152;2024-01-15T09:11:02;100337.11;;;7.42;61.27
79538;BME280;68989;52.032;5.152;2024-01-15T09:13:29;100338.58;;;7.44;61.28
79538;BME280;68989;52.032;5.152;2024-01-15T09:15:56;100342.45;;;7.44;61.19
79538;BME280;68989;52.032;5.152;2024-01-15T09:18:23;100350.18;;;7.44;61.36
79538;BME280;68989;52.032;5.152;2024-01-15T09:20:50;100355.66;;;7.45;61.23
79538;BME280;68989;52.032;5.152;2024-01-15T09:23:17;100361.03;;;7.46;61.26
79538;BME280;68989;52.032;5.152;2024-01-15T09:25:44;100353.97;;;7.47;61.12
79538;BME280;68989;52.032;5.152;2024-01-15T09:28:11;100353.37;;;7.48;61.10
79538;BME280;68989;52.032;5.152;2024-01-15T09:30:38;100346.87;;;7.48;61.13
79538;BME280;68989;52.032;5.152;2024-01-15T09:33:05;100343.38;;;7.48;61.11
79538;BME280;68989;52.032;5.152;2024-01-15T09:35:32;100335.57;;;7.48;61.16
79538;BME280;68989;52.032;5.152;2024-01-15T09:37:59;100342.39;;;7.47;61.22
79538;BME280;68989;52.032;5.152;2024-01-15T09:40:31;100349.21;;;7.46;61.24
79538;BME280;68989;52.032;5.152;2024-01-15T09:42:58;100347.15;;;7.47;61.19
79538;BME280;68989;52.032;5.152;2024-01-15T09:45:25;100340.32;;;7.46;61.27
79538;BME280;68989;52.032;5.152;2024-01-15T09:47:53;100338.92;;;7.47;61.23
79538;BME280;68989;52.032;5.152;2024-01-15T09:50:20;100335.09;;;7.47;61.20
79538;BME280;68989;52.032;5.152;2024-01-15T09:52:48;100331.78;;;7.46;61.27
79538;BME280;68989;52.032;5.152;2024-01-15T09:55:17;100328.41;;;7.47;61.36
79538;BME280;68989;52.032;5.152;2024-01-15T09:57:45;100323.97;;;7.47;61.21
79538;BME280;68989;52.032;5.152;2024-01-15T10:00:13;100322.98;;;7.47;61.18
79538;BME280;68989;52.032;5.152;2024-01-15T10:02:41;100320.76;;;7.46;61.25
79538;BME280;68989;52.032;5.152;2024-01-15T10:05:08;100323.43;;;7.46;61.19
79538;BME280;68989;52.032;5.152;2024-01-15T10:07:37;100327.95;;;7.46;61.08
79538;BME280;68989;52.032;5.152;2024-01-15T10:10:05;100334.65;;;7.46;61.23
79538;BME280;68989;52.032;5.152;2024-01-15T10:12:32;100340.51;;;7.46;61.30
79538;BME280;68989;52.032;5.152;2024-01-15T10:14:59;100341.21;;;7.47;61.16
79538;BME280;68989;52.032;5.152;2024-01-15T10:17:26;100340.70;;;7.47;61.10
79538;BME280;68989;52.032;5.152;2024-01-15T10:19:53;100340.75;;;7.46;61.26
79538;BME280;68989;52.032;5.152;2024-01-15T10:22:20;100337.62;;;7.47;61.21
79538;BME280;68989;52.032;5.152;2024-01-15T10:24:47;100330.49;;;7.47;61.28
79538;BME280;68989;52.032;5.152;2024-01-15T10:27:15;100330.98;;;7.48;61.40
79538;BME280;68989;52.032;5.152;2024-01-15T10:29:42;100331.84;;;7.49;61.54
79538;BME280;68989;52.032;5.152;2024-01-15T10:32:11;100335.48;;;7.50;61.44
79538;BME280;68989;52.032;5.152;2024-01-15T10:34:38;100332.92;;;7.52;61.34
79538;BME280;68989;52.032;5.152;2024-01-15T10:37:07;100331.68;;;7.53;61.41
79538;BME280;68989;52.032;5.152;2024-01-15T10:39:35;100333.30;;;7.55;61.46
79538;BME280;68989;52.032;5.152;2024-01-15T10:42:02;100333.09;;;7.56;61.43
79538;BME280;68989;52.032;5.152;2024-01-15T10:44:29;100336.11;;;7.58;61.51
79538;BME280;68989;52.032;5.152;2024-01-15T10:46:57;100341.58;;;7.58;61.20
79538;BME280;68989;52.032;5.152;2024-01-15T10:49:24;100342.74;;;7.59;61.32
79538;BME280;68989;52.032;5.152;2024-01-15T10:51:52;100342.44;;;7.59;61.52
79538;BME280;68989;52.032;5.152;2024-01-15T10:54:19;100343.16;;;7.60;61.48
79538;BME280;68989;52.032;5.152;2024-01-15T10:56:48;100344.57;;;7.62;61.30
79538;BME280;68989;52.032;5.152;2024-01-15T10:59:16;100347.09;;;7.63;61.46
79538;BME280;68989;52.032;5.152;2024-01-15T11:01:46;100347.57;;;7.65;61.51
79538;BME280;68989;52.032;5.152;2024-01-15T11:04:15;100363.89;;;7.67;61.41
79538;BME280;68989;52.032;5.152;2024-01-15T11:06:44;100365.69;;;7.67;61.25
79538;BME280;68989;52.032;5.152;2024-01-15T11:09:12;100372.66;;;7.68;61.26
79538;BME280;68989;52.032;5.152;2024-01-15T11:11:41;100374.27;;;7.67;61.40
79538;BME280;68989;52.032;5.152;2024-01-15T11:14:09;100379.00;;;7.65;61.31
79538;BME280;68989;52.032;5.152;2024-01-15T11:17:08;100372.27;;;7.61;61.42
79538;BME280;68989;52.032;5.152;2024-01-15T11:19:36;100371.87;;;7.60;61.59
79538;BME280;68989;52.032;5.152;2024-01-15T11:22:03;100371.19;;;7.57;61.70
79538;BME280;68989;52.032;5.152;2024-01-15T11:24:35;100369.06;;;7.57;61.67
79538;BME280;68989;52.032;5.152;2024-01-15T11:27:03;100368.16;;;7.57;61.86
79538;BME280;68989;52.032;5.152;2024-01-15T11:29:31;100369.34;;;7.60;61.74
79538;BME280;68989;52.032;5.152;2024-01-15T11:32:01;100374.61;;;7.62;61.68
79538;BME280;68989;52.032;5.152;2024-01-15T11:35:00;100386.50;;;7.65;61.63
79538;BME280;68989;52.032;5.152;2024-01-15T11:37:28;100386.93;;;7.68;61.54
79538;BME280;68989;52.032;5.152;2024-01-15T11:39:55;100386.78;;;7.70;61.50
79538;BME280;68989;52.032;5.152;2024-01-15T11:42:23;100391.38;;;7.72;61.61
79538;BME280;68989;52.032;5.152;2024-01-15T11:44:50;100391.86;;;7.73;61.52
79538;BME280;68989;52.032;5.152;2024-01-15T11:48:03;100397.60;;;7.74;61.46
79538;BME280;68989;52.032;5.152;2024-01-15T11:50:35;100390.31;;;7.75;61.44
79538;BME280;68989;52.032;5.152;2024-01-15T11:53:13;100391.51;;;7.76;61.55
79538;BME280;68989;52.032;5.152;2024-01-15T11:55:44;100393.97;;;7.76;61.50
79538;BME280;68989;52.032;5.152;2024-01-15T11:58:12;100392.36;;;7.77;61.50
79538;BME280;68989;52.032;5.152;2024-01-15T12:00:40;100391.66;;;7.77;61.44
79538;BME280;68989;52.032;5.152;2024-01-15T12:03:08;100390.88;;;7.77;61.41
79538;BME280;68989;52.032;5.152;2024-01-15T12:05:37;100394.66;;;7.77;61.32
79538;BME280;68989;52.032;5.152;2024-01-15T12:08:05;100399.21;;;7.77;61.40
79538;BME280;68989;52.032;5.152;2024-01-15T12:10:32;100402.67;;;7.78;61.40
79538;BME280;68989;52.032;5.152;2024-01-15T12:13:00;100406.17;;;7.78;61.38
79538;BME280;68989;52.032;5.152;2024-01-15T12:15:28;100409.16;;;7.77;61.42
79538;BME280;68989;52.032;5.152;2024-01-15T12:17:56;100408.61;;;7.78;61.45
79538;BME280;68989;52.032;5.152;2024-01-15T12:20:24;100407.17;;;7.79;61.31
79538;BME280;68989;52.032;5.152;2024-01-15T12:22:52;100404.86;;;7.80;61.52
79538;BME280;68989;52.032;5.152;2024-01-15T12:25:19;100403.06;;;7.82;61.57
79538;BME280;68989;52.032;5.152;2024-01-15T12:27:46;100404.01;;;7.84;61.60
79538;BME280;68989;52.032;5.152;2024-01-15T12:30:14;100398.70;;;7.86;61.42
79538;BME280;68989;52.032;5.152;2024-01-15T12:32:41;100396.52;;;7.88;61.68
79538;BME280;68989;52.032;5.152;2024-01-15T12:35:09;100394.87;;;7.90;61.57
79538;BME280;68989;52.032;5.152;2024-01-15T12:37:37;100395.23;;;7.91;61.54
79538;BME280;68989;52.032;5.152;2024-01-15T12:40:07;100392.61;;;7.92;61.52
79538;BME280;68989;52.032;5.152;2024-01-15T12:42:35;100391.54;;;7.94;61.57
79538;BME280;68989;52.032;5.152;2024-01-15T12:45:02;100400.29;;;7.96;61.51
79538;BME280;68989;52.032;5.152;2024-01-15T12:47:30;100396.22;;;7.98;61.41
79538;BME280;68989;52.032;5.152;2024-01-15T12:49:58;100397.01;;;8.00;61.35
79538;BME280;68989;52.032;5.152;2024-01-15T12:52:27;100402.88;;;8.03;61.44
79538;BME280;68989;52.032;5.152;2024-01-15T12:54:54;100396.98;;;8.06;61.41
79538;BME280;68989;52.032;5.152;2024-01-15T12:57:22;100407.75;;;8.07;61.32
79538;BME280;68989;52.032;5.152;2024-01-15T12:59:49;100421.55;;;8.09;61.53
79538;BME280;68989;52.032;5.152;2024-01-15T13:02:16;100437.14;;;8.08;61.33